sensor_id;sensor_type;location;lat;lon;timestamp;P1;durP1;ratioP1;P2;durP2;ratioP2
50631;SDS011;49583;45.590;-122.498;2023-11-19T00:01:31;5.60;;;3.90;;
50631;SDS011;49583;45.590;-122.498;2023-11-19T00:03:44;4.40;;;3.10;;
50631;SDS011;49583;45.590;-122.498;2023-11-19T00:05:57;6.40;;;3.80;;
50631;SDS011;49583;45.590;-122.498;2023-11-19T00:08:10;10.10;;;4.20;;
50631;SDS011;49583;45.590;-122.498;2023-11-19T00:10:22;5.20;;;3.90;;
50631;SDS011;49583;45.590;-122.498;2023-11-19T00:12:35;4.80;;;4.00;;
50631;SDS011;49583;45.590;-122.498;2023-11-19T00:14:48;4.70;;;4.10;;
50631;SDS011;49583;45.590;-122.498;2023-11-19T00:17:01;5.30;;;3.20;;
50631;SDS011;49583;45.590;-122.498;2023-11-19T00:19:15;3.90;;;3.30;;
50631;SDS011;49583;45.590;-122.498;2023-11-19T00:21:27;5.40;;;4.00;;
50631;SDS011;49583;45.590;-122.498;2023-11-19T00:23:40;11.80;;;3.90;;
50631;SDS011;49583;45.590;-122.498;2023-11-19T00:25:53;4.40;;;3.30;;
50631;SDS011;49583;45.590;-122.498;2023-11-19T00:28:05;4.50;;;3.80;;
50631;SDS011;49583;45.590;-122.498;2023-11-19T00:30:18;5.20;;;3.80;;
50631;SDS011;49583;45.590;-122.498;2023-11-19T00:32:32;6.10;;;3.70;;
50631;SDS011;49583;45.590;-122.498;2023-11-19T00:34:46;4.80;;;3.70;;
50631;SDS011;49583;45.590;-122.498;2023-11-19T00:36:59;3.80;;;3.40;;
50631;SDS011;49583;45.590;-122.498;2023-11-19T00:39:11;4.20;;;3.70;;
50631;SDS011;49583;45.590;-122.498;2023-11-19T00:41:25;5.10;;;3.70;;
50631;SDS011;49583;45.590;-122.498;2023-11-19T00:43:37;4.80;;;3.90;;
50631;SDS011;49583;45.590;-122.498;2023-11-19T00:45:50;4.30;;;3.90;;
50631;SDS011;49583;45.590;-122.498;2023-11-19T00:48:03;4.20;;;3.70;;
50631;SDS011;49583;45.590;-122.498;2023-11-19T00:50:16;5.40;;;4.10;;
50631;SDS011;49583;45.590;-122.498;2023-11-19T00:52:30;5.00;;;3.90;;
50631;SDS011;49583;45.590;-122.498;2023-11-19T00:54:43;5.10;;;3.90;;
50631;SDS011;49583;45.590;-122.498;2023-11-19T00:56:56;5.30;;;4.00;;
50631;SDS011;49583;45.590;-122.498;2023-11-19T00:59:08;4.50;;;3.30;;
50631;SDS011;49583;45.590;-122.498;2023-11-19T01:01:21;5.10;;;3.90;;
50631;SDS011;49583;45.590;-122.498;2023-11-19T01:03:34;5.20;;;3.50;;
50631;SDS011;49583;45.590;-122.498;2023-11-19T01:05:46;4.80;;;4.10;;
50631;SDS011;49583;45.590;-122.498;2023-11-19T01:08:00;4.10;;;3.60;;
50631;SDS011;49583;45.590;-122.498;2023-11-19T01:10:13;5.10;;;3.50;;
50631;SDS011;49583;45.590;-122.498;2023-11-19T01:12:26;4.30;;;3.50;;
50631;SDS011;49583;45.590;-122.498;2023-11-19T01:14:38;6.00;;;3.90;;
50631;SDS011;49583;45.590;-122.498;2023-11-19T01:16:51;3.90;;;3.10;;
50631;SDS011;49583;45.590;-122.498;2023-11-19T01:19:04;5.40;;;4.60;;
50631;SDS011;49583;45.590;-122.498;2023-11-19T01:21:23;5.00;;;3.90;;
50631;SDS011;49583;45.590;-122.498;2023-11-19T01:23:36;4.30;;;3.80;;
50631;SDS011;49583;45.590;-122.498;2023-11-19T01:25:50;9.40;;;3.80;;
50631;SDS011;49583;45.590;-122.498;2023-11-19T01:28:03;8.50;;;4.00;;
50631;SDS011;49583;45.590;-122.498;2023-11-19T01:30:16;7.00;;;4.10;;
50631;SDS011;49583;45.590;-122.498;2023-11-19T01:32:28;6.80;;;4.60;;
50631;SDS011;49583;45.590;-122.498;2023-11-19T01:34:42;4.70;;;4.10;;
50631;SDS011;49583;45.590;-122.498;2023-11-19T01:36:55;4.90;;;4.30;;
50631;SDS011;49583;45.590;-122.498;2023-11-19T01:39:08;6.00;;;4.10;;
50631;SDS011;49583;45.590;-122.498;2023-11-19T01:41:21;6.00;;;4.70;;
50631;SDS011;49583;45.590;-122.498;2023-11-19T01:43:34;5.50;;;4.60;;
50631;SDS011;49583;45.590;-122.498;2023-11-19T01:45:49;5.90;;;3.80;;
50631;SDS011;49583;45.590;-122.498;2023-11-19T01:48:02;6.00;;;4.60;;
50631;SDS011;49583;45.590;-122.498;2023-11-19T01:50:19;5.70;;;4.70;;
50631;SDS011;49583;45.590;-122.498;2023-11-19T01:52:33;4.90;;;4.10;;
50631;SDS011;49583;45.590;-122.498;2023-11-19T01:54:47;6.60;;;4.40;;
50631;SDS011;49583;45.590;-122.498;2023-11-19T01:57:01;7.80;;;4.50;;
50631;SDS011;49583;45.590;-122.498;2023-11-19T01:59:14;5.50;;;4.10;;
50631;SDS011;49583;45.590;-122.498;2023-11-19T02:01:28;4.90;;;3.90;;
50631;SDS011;49583;45.590;-122.498;2023-11-19T02:03:45;5.60;;;4.20;;
50631;SDS011;49583;45.590;-122.498;2023-11-19T02:05:58;7.60;;;4.70;;
50631;SDS011;49583;45.590;-122.498;2023-11-19T02:08:11;4.40;;;3.60;;
50631;SDS011;49583;45.590;-122.498;2023-11-19T02:10:23;5.30;;;4.80;;
50631;SDS011;49583;45.590;-122.498;2023-11-19T02:12:36;6.10;;;4.30;;
50631;SDS011;49583;45.590;-122.498;2023-11-19T02:14:50;5.60;;;3.90;;
50631;SDS011;49583;45.590;-122.498;2023-11-19T02:17:03;4.70;;;4.00;;
50631;SDS011;49583;45.590;-122.498;2023-11-19T02:19:17;4.70;;;3.80;;
50631;SDS011;49583;45.590;-122.498;2023-11-19T02:21:31;5.40;;;4.30;;
50631;SDS011;49583;45.590;-122.498;2023-11-19T02:23:43;5.80;;;4.20;;
50631;SDS011;49583;45.590;-122.498;2023-11-19T02:26:05;4.50;;;3.90;;
50631;SDS011;49583;45.590;-122.498;2023-11-19T02:28:25;6.00;;;4.20;;
50631;SDS011;49583;45.590;-122.498;2023-11-19T02:30:38;3.90;;;3.30;;
50631;SDS011;49583;45.590;-122.498;2023-11-19T02:32:51;6.30;;;3.60;;
50631;SDS011;49583;45.590;-122.498;2023-11-19T02:35:05;4.80;;;4.20;;
50631;SDS011;49583;45.590;-122.498;2023-11-19T02:37:18;3.90;;;3.20;;
50631;SDS011;49583;45.590;-122.498;2023-11-19T02:39:31;5.50;;;3.70;;
50631;SDS011;49583;45.590;-122.498;2023-11-19T02:41:44;5.80;;;3.10;;
50631;SDS011;49583;45.590;-122.498;2023-11-19T02:43:58;4.00;;;3.30;;
50631;SDS011;49583;45.590;-122.498;2023-11-19T02:46:11;5.70;;;3.80;;
50631;SDS011;49583;45.590;-122.498;2023-11-19T02:48:24;6.30;;;3.80;;
50631;SDS011;49583;45.590;-122.498;2023-11-19T02:50:38;4.90;;;3.80;;
50631;SDS011;49583;45.590;-122.498;2023-11-19T02:52:51;3.40;;;3.10;;
50631;SDS011;49583;45.590;-122.498;2023-11-19T02:55:06;3.90;;;3.30;;
50631;SDS011;49583;45.590;-122.498;2023-11-19T02:57:20;3.00;;;2.30;;
50631;SDS011;49583;45.590;-122.498;2023-11-19T02:59:33;4.30;;;3.40;;
50631;SDS011;49583;45.590;-122.498;2023-11-19T03:01:50;4.60;;;3.60;;
50631;SDS011;49583;45.590;-122.498;2023-11-19T03:04:03;4.50;;;3.80;;
50631;SDS011;49583;45.590;-122.498;2023-11-19T03:06:20;8.00;;;3.80;;
50631;SDS011;49583;45.590;-122.498;2023-11-19T03:08:34;4.20;;;3.00;;
50631;SDS011;49583;45.590;-122.498;2023-11-19T03:10:47;4.50;;;3.70;;
50631;SDS011;49583;45.590;-122.498;2023-11-19T03:12:59;3.90;;;3.30;;
50631;SDS011;49583;45.590;-122.498;2023-11-19T03:15:12;4.10;;;3.20;;
50631;SDS011;49583;45.590;-122.498;2023-11-19T03:17:25;5.40;;;4.40;;
50631;SDS011;49583;45.590;-122.498;2023-11-19T03:19:38;5.70;;;3.80;;
50631;SDS011;49583;45.590;-122.498;2023-11-19T03:21:50;4.70;;;4.00;;
50631;SDS011;49583;45.590;-122.498;2023-11-19T03:24:04;4.20;;;3.40;;
50631;SDS011;49583;45.590;-122.498;2023-11-19T03:26:20;6.20;;;3.60;;
50631;SDS011;49583;45.590;-122.498;2023-11-19T03:28:32;4.30;;;3.30;;
50631;SDS011;49583;45.590;-122.498;2023-11-19T03:30:45;4.80;;;3.90;;
50631;SDS011;49583;45.590;-122.498;2023-11-19T03:32:58;4.30;;;3.60;;
50631;SDS011;49583;45.590;-122.498;2023-11-19T03:35:10;4.20;;;3.30;;
50631;SDS011;49583;45.590;-122.498;2023-11-19T03:37:23;4.30;;;3.20;;
50631;SDS011;49583;45.590;-122.498;2023-11-19T03:39:35;3.30;;;2.90;;
50631;SDS011;49583;45.590;-122.498;2023-11-19T03:41:48;4.20;;;3.20;;
50631;SDS011;49583;45.590;-122.498;2023-11-19T03:44:02;5.40;;;3.30;;
50631;SDS011;49583;45.590;-122.498;2023-11-19T03:46:19;3.30;;;3.00;;
50631;SDS011;49583;45.590;-122.498;2023-11-19T03:48:32;4.40;;;2.90;;
50631;SDS011;49583;45.590;-122.498;2023-11-19T03:50:45;4.50;;;3.40;;
50631;SDS011;49583;45.590;-122.498;2023-11-19T03:52:58;4.00;;;4.60;;
50631;SDS011;49583;45.590;-122.498;2023-11-19T03:55:13;4.60;;;2.90;;
50631;SDS011;49583;45.590;-122.498;2023-11-19T03:57:26;6.00;;;3.60;;
50631;SDS011;49583;45.590;-122.498;2023-11-19T03:59:41;3.50;;;3.10;;
50631;SDS011;49583;45.590;-122.498;2023-11-19T04:01:56;4.70;;;3.40;;
50631;SDS011;49583;45.590;-122.498;2023-11-19T04:04:10;4.80;;;3.30;;
50631;SDS011;49583;45.590;-122.498;2023-11-19T04:06:23;4.90;;;3.70;;
50631;SDS011;49583;45.590;-122.498;2023-11-19T04:08:36;3.40;;;3.10;;
50631;SDS011;49583;45.590;-122.498;2023-11-19T04:10:48;3.30;;;2.90;;
50631;SDS011;49583;45.590;-122.498;2023-11-19T04:13:01;6.10;;;3.80;;
50631;SDS011;49583;45.590;-122.498;2023-11-19T04:15:14;3.40;;;3.00;;
50631;SDS011;49583;45.590;-122.498;2023-11-19T04:17:27;4.30;;;3.20;;
50631;SDS011;49583;45.590;-122.498;2023-11-19T04:19:41;5.10;;;3.40;;
50631;SDS011;49583;45.590;-122.498;2023-11-19T04:21:53;3.80;;;2.50;;
50631;SDS011;49583;45.590;-122.498;2023-11-19T04:24:07;3.70;;;2.90;;
50631;SDS011;49583;45.590;-122.498;2023-11-19T04:26:21;3.20;;;2.50;;
50631;SDS011;49583;45.590;-122.498;2023-11-19T04:28:36;2.80;;;2.40;;
50631;SDS011;49583;45.590;-122.498;2023-11-19T04:30:50;3.30;;;2.80;;
50631;SDS011;49583;45.590;-122.498;2023-11-19T04:33:03;3.70;;;2.10;;
50631;SDS011;49583;45.590;-122.498;2023-11-19T04:35:16;3.40;;;2.30;;
50631;SDS011;49583;45.590;-122.498;2023-11-19T04:37:29;2.80;;;1.90;;
50631;SDS011;49583;45.590;-122.498;2023-11-19T04:39:42;2.30;;;2.10;;
50631;SDS011;49583;45.590;-122.498;2023-11-19T04:41:56;3.50;;;2.40;;
50631;SDS011;49583;45.590;-122.498;2023-11-19T04:44:08;2.80;;;2.20;;
50631;SDS011;49583;45.590;-122.498;2023-11-19T04:46:23;3.50;;;2.00;;
50631;SDS011;49583;45.590;-122.498;2023-11-19T04:48:35;2.10;;;1.90;;
50631;SDS011;49583;45.590;-122.498;2023-11-19T04:50:48;2.20;;;1.70;;
50631;SDS011;49583;45.590;-122.498;2023-11-19T04:53:01;2.70;;;1.70;;
50631;SDS011;49583;45.590;-122.498;2023-11-19T04:55:14;2.80;;;2.00;;
50631;SDS011;49583;45.590;-122.498;2023-11-19T04:57:27;2.40;;;1.70;;
50631;SDS011;49583;45.590;-122.498;2023-11-19T04:59:40;2.20;;;1.90;;
50631;SDS011;49583;45.590;-122.498;2023-11-19T05:01:52;1.90;;;1.70;;
50631;SDS011;49583;45.590;-122.498;2023-11-19T05:04:07;2.90;;;1.70;;
50631;SDS011;49583;45.590;-122.498;2023-11-19T05:06:20;2.00;;;1.80;;
50631;SDS011;49583;45.590;-122.498;2023-11-19T05:08:32;2.90;;;2.10;;
50631;SDS011;49583;45.590;-122.498;2023-11-19T06:04:19;3.40;;;3.10;;
50631;SDS011;49583;45.590;-122.498;2023-11-19T06:06:29;3.40;;;2.50;;
50631;SDS011;49583;45.590;-122.498;2023-11-19T06:08:39;5.50;;;3.20;;
50631;SDS011;49583;45.590;-122.498;2023-11-19T06:10:48;4.60;;;3.30;;
50631;SDS011;49583;45.590;-122.498;2023-11-19T06:12:59;6.20;;;3.40;;
50631;SDS011;49583;45.590;-122.498;2023-11-19T06:15:13;4.70;;;3.70;;
50631;SDS011;49583;45.590;-122.498;2023-11-19T06:17:23;4.30;;;3.70;;
50631;SDS011;49583;45.590;-122.498;2023-11-19T06:19:32;5.20;;;4.10;;
50631;SDS011;49583;45.590;-122.498;2023-11-19T06:21:42;4.50;;;3.80;;
50631;SDS011;49583;45.590;-122.498;2023-11-19T06:23:51;7.00;;;4.30;;
50631;SDS011;49583;45.590;-122.498;2023-11-19T06:26:01;4.60;;;3.80;;
50631;SDS011;49583;45.590;-122.498;2023-11-19T06:28:11;4.30;;;3.90;;
50631;SDS011;49583;45.590;-122.498;2023-11-19T06:30:20;4.40;;;3.50;;
50631;SDS011;49583;45.590;-122.498;2023-11-19T06:32:30;4.20;;;3.80;;
50631;SDS011;49583;45.590;-122.498;2023-11-19T06:34:40;4.70;;;3.50;;
50631;SDS011;49583;45.590;-122.498;2023-11-19T06:36:51;4.40;;;4.00;;
50631;SDS011;49583;45.590;-122.498;2023-11-19T06:39:00;5.10;;;3.90;;
50631;SDS011;49583;45.590;-122.498;2023-11-19T06:41:11;4.60;;;4.10;;
50631;SDS011;49583;45.590;-122.498;2023-11-19T06:43:21;5.30;;;4.10;;
50631;SDS011;49583;45.590;-122.498;2023-11-19T06:45:31;4.00;;;3.40;;
50631;SDS011;49583;45.590;-122.498;2023-11-19T06:47:43;6.00;;;4.20;;
50631;SDS011;49583;45.590;-122.498;2023-11-19T06:49:52;5.20;;;3.70;;
50631;SDS011;49583;45.590;-122.498;2023-11-19T06:52:02;5.30;;;4.00;;
50631;SDS011;49583;45.590;-122.498;2023-11-19T06:54:12;6.50;;;4.20;;
50631;SDS011;49583;45.590;-122.498;2023-11-19T06:56:22;5.70;;;4.60;;
50631;SDS011;49583;45.590;-122.498;2023-11-19T06:58:32;7.20;;;5.20;;
50631;SDS011;49583;45.590;-122.498;2023-11-19T07:00:45;5.30;;;4.40;;
50631;SDS011;49583;45.590;-122.498;2023-11-19T07:02:57;5.20;;;4.30;;
50631;SDS011;49583;45.590;-122.498;2023-11-19T07:05:07;6.40;;;5.10;;
50631;SDS011;49583;45.590;-122.498;2023-11-19T07:07:18;6.80;;;5.50;;
50631;SDS011;49583;45.590;-122.498;2023-11-19T07:09:28;7.30;;;5.70;;
50631;SDS011;49583;45.590;-122.498;2023-11-19T07:11:38;7.50;;;5.80;;
50631;SDS011;49583;45.590;-122.498;2023-11-19T07:13:48;7.00;;;5.40;;
50631;SDS011;49583;45.590;-122.498;2023-11-19T07:15:58;7.40;;;5.90;;
50631;SDS011;49583;45.590;-122.498;2023-11-19T07:18:08;8.00;;;5.70;;
50631;SDS011;49583;45.590;-122.498;2023-11-19T07:20:18;8.90;;;6.30;;
50631;SDS011;49583;45.590;-122.498;2023-11-19T07:22:29;7.10;;;6.10;;
50631;SDS011;49583;45.590;-122.498;2023-11-19T07:24:40;9.60;;;5.50;;
50631;SDS011;49583;45.590;-122.498;2023-11-19T07:26:50;14.70;;;6.40;;
50631;SDS011;49583;45.590;-122.498;2023-11-19T07:28:59;9.00;;;6.90;;
50631;SDS011;49583;45.590;-122.498;2023-11-19T07:31:14;8.50;;;6.00;;
50631;SDS011;49583;45.590;-122.498;2023-11-19T07:33:25;7.30;;;6.40;;
50631;SDS011;49583;45.590;-122.498;2023-11-19T07:35:35;8.70;;;6.80;;
50631;SDS011;49583;45.590;-122.498;2023-11-19T07:37:47;7.60;;;6.30;;
50631;SDS011;49583;45.590;-122.498;2023-11-19T07:39:59;9.90;;;6.60;;
50631;SDS011;49583;45.590;-122.498;2023-11-19T07:42:10;8.00;;;7.20;;
50631;SDS011;49583;45.590;-122.498;2023-11-19T07:44:20;7.40;;;6.50;;
50631;SDS011;49583;45.590;-122.498;2023-11-19T07:46:30;8.80;;;6.80;;
50631;SDS011;49583;45.590;-122.498;2023-11-19T07:48:40;9.80;;;7.00;;
50631;SDS011;49583;45.590;-122.498;2023-11-19T07:50:49;8.40;;;7.20;;
50631;SDS011;49583;45.590;-122.498;2023-11-19T07:52:59;9.60;;;7.90;;
50631;SDS011;49583;45.590;-122.498;2023-11-19T07:55:10;10.80;;;8.60;;
50631;SDS011;49583;45.590;-122.498;2023-11-19T07:57:19;10.50;;;8.20;;
50631;SDS011;49583;45.590;-122.498;2023-11-19T07:59:30;9.60;;;7.30;;
50631;SDS011;49583;45.590;-122.498;2023-11-19T08:01:40;9.70;;;8.00;;
50631;SDS011;49583;45.590;-122.498;2023-11-19T08:03:50;9.70;;;7.20;;
50631;SDS011;49583;45.590;-122.498;2023-11-19T08:06:03;9.70;;;7.80;;
50631;SDS011;49583;45.590;-122.498;2023-11-19T08:08:13;11.80;;;7.80;;
50631;SDS011;49583;45.590;-122.498;2023-11-19T08:10:22;8.40;;;7.10;;
50631;SDS011;49583;45.590;-122.498;2023-11-19T08:12:32;9.20;;;7.30;;
50631;SDS011;49583;45.590;-122.498;2023-11-19T08:14:42;11.90;;;7.40;;
50631;SDS011;49583;45.590;-122.498;2023-11-19T08:16:51;10.00;;;7.50;;
50631;SDS011;49583;45.590;-122.498;2023-11-19T08:19:01;8.00;;;7.20;;
50631;SDS011;49583;45.590;-122.498;2023-11-19T08:21:11;10.80;;;7.00;;
50631;SDS011;49583;45.590;-122.498;2023-11-19T08:23:22;8.10;;;7.20;;
50631;SDS011;49583;45.590;-122.498;2023-11-19T08:25:34;6.90;;;5.70;;
50631;SDS011;49583;45.590;-122.498;2023-11-19T08:27:44;13.40;;;6.40;;
50631;SDS011;49583;45.590;-122.498;2023-11-19T08:29:54;8.60;;;7.70;;
50631;SDS011;49583;45.590;-122.498;2023-11-19T08:32:04;12.10;;;7.60;;
50631;SDS011;49583;45.590;-122.498;2023-11-19T08:34:14;8.10;;;7.20;;
50631;SDS011;49583;45.590;-122.498;2023-11-19T08:36:24;10.30;;;8.10;;
50631;SDS011;49583;45.590;-122.498;2023-11-19T08:38:34;11.90;;;8.50;;
50631;SDS011;49583;45.590;-122.498;2023-11-19T08:40:44;10.10;;;7.90;;
50631;SDS011;49583;45.590;-122.498;2023-11-19T08:42:58;8.70;;;7.80;;
50631;SDS011;49583;45.590;-122.498;2023-11-19T08:45:08;9.50;;;8.00;;
50631;SDS011;49583;45.590;-122.498;2023-11-19T08:47:18;7.60;;;6.90;;
50631;SDS011;49583;45.590;-122.498;2023-11-19T08:49:30;7.70;;;6.90;;
50631;SDS011;49583;45.590;-122.498;2023-11-19T08:51:40;8.50;;;7.20;;
50631;SDS011;49583;45.590;-122.498;2023-11-19T08:53:51;9.10;;;6.60;;
50631;SDS011;49583;45.590;-122.498;2023-11-19T08:56:01;6.80;;;5.90;;
50631;SDS011;49583;45.590;-122.498;2023-11-19T08:58:12;8.60;;;6.90;;
50631;SDS011;49583;45.590;-122.498;2023-11-19T09:00:22;11.70;;;6.70;;
50631;SDS011;49583;45.590;-122.498;2023-11-19T09:02:32;6.80;;;5.90;;
50631;SDS011;49583;45.590;-122.498;2023-11-19T09:04:43;7.40;;;6.40;;
50631;SDS011;49583;45.590;-122.498;2023-11-19T09:06:57;6.30;;;5.50;;
50631;SDS011;49583;45.590;-122.498;2023-11-19T09:09:09;6.50;;;5.80;;
50631;SDS011;49583;45.590;-122.498;2023-11-19T09:11:22;6.90;;;6.30;;
50631;SDS011;49583;45.590;-122.498;2023-11-19T09:13:32;7.70;;;5.20;;
50631;SDS011;49583;45.590;-122.498;2023-11-19T09:15:42;9.10;;;6.80;;
50631;SDS011;49583;45.590;-122.498;2023-11-19T09:17:51;7.00;;;6.30;;
50631;SDS011;49583;45.590;-122.498;2023-11-19T09:20:01;9.90;;;5.30;;
50631;SDS011;49583;45.590;-122.498;2023-11-19T09:22:12;6.80;;;5.90;;
50631;SDS011;49583;45.590;-122.498;2023-11-19T09:24:22;7.70;;;6.50;;
50631;SDS011;49583;45.590;-122.498;2023-11-19T09:26:32;7.80;;;6.40;;
50631;SDS011;49583;45.590;-122.498;2023-11-19T09:28:42;7.40;;;6.70;;
50631;SDS011;49583;45.590;-122.498;2023-11-19T09:30:57;8.00;;;6.60;;
50631;SDS011;49583;45.590;-122.498;2023-11-19T09:33:10;6.20;;;5.60;;
50631;SDS011;49583;45.590;-122.498;2023-11-19T09:35:21;8.90;;;6.80;;
50631;SDS011;49583;45.590;-122.498;2023-11-19T09:37:30;7.30;;;6.50;;
50631;SDS011;49583;45.590;-122.498;2023-11-19T09:39:40;7.20;;;6.50;;
50631;SDS011;49583;45.590;-122.498;2023-11-19T09:41:50;9.90;;;6.40;;
50631;SDS011;49583;45.590;-122.498;2023-11-19T09:43:59;9.20;;;6.10;;
50631;SDS011;49583;45.590;-122.498;2023-11-19T09:46:09;7.00;;;6.30;;
50631;SDS011;49583;45.590;-122.498;2023-11-19T09:48:23;10.00;;;6.90;;
50631;SDS011;49583;45.590;-122.498;2023-11-19T09:50:34;8.00;;;6.30;;
50631;SDS011;49583;45.590;-122.498;2023-11-19T09:52:45;10.00;;;5.90;;
50631;SDS011;49583;45.590;-122.498;2023-11-19T09:54:55;8.80;;;6.80;;
50631;SDS011;49583;45.590;-122.498;2023-11-19T09:57:05;7.40;;;5.80;;
50631;SDS011;49583;45.590;-122.498;2023-11-19T10:01:24;5.30;;;4.50;;
50631;SDS011;49583;45.590;-122.498;2023-11-19T10:03:34;6.00;;;5.30;;
50631;SDS011;49583;45.590;-122.498;2023-11-19T10:05:46;5.70;;;4.90;;
50631;SDS011;49583;45.590;-122.498;2023-11-19T10:07:58;8.10;;;4.40;;
50631;SDS011;49583;45.590;-122.498;2023-11-19T10:10:09;7.10;;;5.20;;
50631;SDS011;49583;45.590;-122.498;2023-11-19T10:12:23;7.30;;;5.10;;
50631;SDS011;49583;45.590;-122.498;2023-11-19T10:14:33;7.00;;;5.20;;
50631;SDS011;49583;45.590;-122.498;2023-11-19T10:16:44;8.30;;;5.30;;
50631;SDS011;49583;45.590;-122.498;2023-11-19T10:18:55;6.20;;;4.50;;
50631;SDS011;49583;45.590;-122.498;2023-11-19T10:21:05;4.70;;;4.20;;
50631;SDS011;49583;45.590;-122.498;2023-11-19T10:23:18;6.50;;;4.90;;
50631;SDS011;49583;45.590;-122.498;2023-11-19T10:25:27;7.80;;;4.30;;
50631;SDS011;49583;45.590;-122.498;2023-11-19T10:27:37;7.80;;;4.50;;
50631;SDS011;49583;45.590;-122.498;2023-11-19T10:29:47;6.90;;;4.00;;
50631;SDS011;49583;45.590;-122.498;2023-11-19T10:31:59;5.60;;;4.00;;
50631;SDS011;49583;45.590;-122.498;2023-11-19T10:34:28;5.60;;;3.70;;
50631;SDS011;49583;45.590;-122.498;2023-11-19T10:36:38;4.80;;;3.50;;
50631;SDS011;49583;45.590;-122.498;2023-11-19T10:38:55;7.60;;;3.90;;
50631;SDS011;49583;45.590;-122.498;2023-11-19T10:41:05;7.90;;;3.70;;
50631;SDS011;49583;45.590;-122.498;2023-11-19T10:43:15;3.90;;;2.40;;
50631;SDS011;49583;45.590;-122.498;2023-11-19T10:45:25;5.10;;;2.70;;
50631;SDS011;49583;45.590;-122.498;2023-11-19T10:47:34;4.10;;;2.60;;
50631;SDS011;49583;45.590;-122.498;2023-11-19T10:49:48;4.70;;;3.10;;
50631;SDS011;49583;45.590;-122.498;2023-11-19T10:51:57;3.80;;;2.70;;
50631;SDS011;49583;45.590;-122.498;2023-11-19T10:54:08;4.40;;;2.30;;
50631;SDS011;49583;45.590;-122.498;2023-11-19T10:56:20;3.70;;;2.40;;
50631;SDS011;49583;45.590;-122.498;2023-11-19T10:58:38;5.80;;;2.50;;
50631;SDS011;49583;45.590;-122.498;2023-11-19T11:00:52;5.00;;;2.50;;
50631;SDS011;49583;45.590;-122.498;2023-11-19T11:03:11;3.70;;;2.70;;
50631;SDS011;49583;45.590;-122.498;2023-11-19T11:05:24;4.00;;;2.00;;
50631;SDS011;49583;45.590;-122.498;2023-11-19T11:07:36;5.30;;;2.60;;
50631;SDS011;49583;45.590;-122.498;2023-11-19T11:09:47;3.70;;;2.10;;
50631;SDS011;49583;45.590;-122.498;2023-11-19T11:11:57;4.80;;;2.20;;
50631;SDS011;49583;45.590;-122.498;2023-11-19T11:14:08;6.40;;;2.90;;
50631;SDS011;49583;45.590;-122.498;2023-11-19T11:16:19;4.00;;;2.40;;
50631;SDS011;49583;45.590;-122.498;2023-11-19T11:18:29;5.10;;;2.60;;
50631;SDS011;49583;45.590;-122.498;2023-11-19T11:20:39;7.30;;;3.00;;
50631;SDS011;49583;45.590;-122.498;2023-11-19T11:22:50;4.90;;;2.40;;
50631;SDS011;49583;45.590;-122.498;2023-11-19T11:25:23;3.20;;;2.30;;
50631;SDS011;49583;45.590;-122.498;2023-11-19T11:28:04;9.60;;;2.70;;
50631;SDS011;49583;45.590;-122.498;2023-11-19T11:30:28;8.40;;;2.20;;
50631;SDS011;49583;45.590;-122.498;2023-11-19T11:32:49;5.70;;;2.10;;
50631;SDS011;49583;45.590;-122.498;2023-11-19T11:35:17;8.90;;;3.00;;
50631;SDS011;49583;45.590;-122.498;2023-11-19T11:37:36;8.90;;;2.90;;
50631;SDS011;49583;45.590;-122.498;2023-11-19T11:39:52;7.20;;;2.10;;
50631;SDS011;49583;45.590;-122.498;2023-11-19T11:45:00;7.30;;;2.60;;
50631;SDS011;49583;45.590;-122.498;2023-11-19T11:47:11;7.10;;;2.10;;
50631;SDS011;49583;45.590;-122.498;2023-11-19T11:49:41;13.50;;;2.40;;
50631;SDS011;49583;45.590;-122.498;2023-11-19T11:52:11;9.40;;;2.60;;
50631;SDS011;49583;45.590;-122.498;2023-11-19T11:54:28;16.60;;;3.00;;
50631;SDS011;49583;45.590;-122.498;2023-11-19T11:57:02;8.80;;;2.50;;
50631;SDS011;49583;45.590;-122.498;2023-11-19T11:59:34;11.60;;;2.90;;
50631;SDS011;49583;45.590;-122.498;2023-11-19T12:01:58;14.70;;;3.40;;
50631;SDS011;49583;45.590;-122.498;2023-11-19T12:04:30;8.90;;;2.80;;
50631;SDS011;49583;45.590;-122.498;2023-11-19T12:07:03;10.90;;;2.60;;
50631;SDS011;49583;45.590;-122.498;2023-11-19T12:09:29;10.80;;;2.60;;
50631;SDS011;49583;45.590;-122.498;2023-11-19T12:11:49;10.60;;;2.10;;
50631;SDS011;49583;45.590;-122.498;2023-11-19T12:20:15;9.80;;;2.50;;
50631;SDS011;49583;45.590;-122.498;2023-11-19T12:22:48;8.20;;;2.80;;
50631;SDS011;49583;45.590;-122.498;2023-11-19T12:25:19;15.30;;;3.00;;
50631;SDS011;49583;45.590;-122.498;2023-11-19T12:27:49;12.90;;;2.60;;
50631;SDS011;49583;45.590;-122.498;2023-11-19T12:30:00;15.20;;;3.00;;
50631;SDS011;49583;45.590;-122.498;2023-11-19T12:32:20;13.20;;;3.30;;
50631;SDS011;49583;45.590;-122.498;2023-11-19T12:34:30;22.80;;;3.20;;
50631;SDS011;49583;45.590;-122.498;2023-11-19T12:36:53;18.80;;;2.80;;
50631;SDS011;49583;45.590;-122.498;2023-11-19T12:39:22;13.20;;;2.70;;
50631;SDS011;49583;45.590;-122.498;2023-11-19T12:41:53;15.60;;;2.90;;
50631;SDS011;49583;45.590;-122.498;2023-11-19T12:44:15;18.80;;;3.00;;
50631;SDS011;49583;45.590;-122.498;2023-11-19T12:46:25;14.00;;;2.50;;
50631;SDS011;49583;45.590;-122.498;2023-11-19T12:48:55;13.50;;;2.80;;
50631;SDS011;49583;45.590;-122.498;2023-11-19T12:51:14;8.50;;;2.20;;
50631;SDS011;49583;45.590;-122.498;2023-11-19T12:53:48;9.90;;;1.90;;
50631;SDS011;49583;45.590;-122.498;2023-11-19T12:56:20;17.40;;;2.90;;
50631;SDS011;49583;45.590;-122.498;2023-11-19T12:58:43;11.30;;;2.30;;
50631;SDS011;49583;45.590;-122.498;2023-11-19T13:01:15;13.00;;;2.70;;
50631;SDS011;49583;45.590;-122.498;2023-11-19T13:03:46;13.90;;;2.50;;
50631;SDS011;49583;45.590;-122.498;2023-11-19T13:06:18;19.40;;;3.00;;
50631;SDS011;49583;45.590;-122.498;2023-11-19T13:08:38;11.80;;;2.70;;
50631;SDS011;49583;45.590;-122.498;2023-11-19T13:10:52;12.00;;;2.00;;
50631;SDS011;49583;45.590;-122.498;2023-11-19T13:13:22;15.70;;;3.40;;
50631;SDS011;49583;45.590;-122.498;2023-11-19T13:15:52;9.40;;;3.10;;
50631;SDS011;49583;45.590;-122.498;2023-11-19T13:18:09;15.90;;;2.50;;
50631;SDS011;49583;45.590;-122.498;2023-11-19T13:20:40;12.30;;;2.20;;
50631;SDS011;49583;45.590;-122.498;2023-11-19T13:23:01;9.30;;;1.80;;
50631;SDS011;49583;45.590;-122.498;2023-11-19T13:25:32;12.30;;;2.50;;
50631;SDS011;49583;45.590;-122.498;2023-11-19T13:28:03;9.00;;;2.50;;
50631;SDS011;49583;45.590;-122.498;2023-11-19T13:30:24;9.20;;;2.40;;
50631;SDS011;49583;45.590;-122.498;2023-11-19T13:32:35;9.70;;;2.40;;
50631;SDS011;49583;45.590;-122.498;2023-11-19T13:35:06;7.50;;;2.20;;
50631;SDS011;49583;45.590;-122.498;2023-11-19T13:37:16;11.80;;;2.10;;
50631;SDS011;49583;45.590;-122.498;2023-11-19T13:39:45;11.00;;;1.70;;
50631;SDS011;49583;45.590;-122.498;2023-11-19T13:42:15;10.00;;;2.10;;
50631;SDS011;49583;45.590;-122.498;2023-11-19T13:44:46;11.90;;;2.10;;
50631;SDS011;49583;45.590;-122.498;2023-11-19T13:47:10;10.10;;;1.70;;
50631;SDS011;49583;45.590;-122.498;2023-11-19T13:49:31;15.70;;;2.80;;
50631;SDS011;49583;45.590;-122.498;2023-11-19T13:52:01;7.10;;;1.70;;
50631;SDS011;49583;45.590;-122.498;2023-11-19T13:54:13;14.30;;;2.20;;
50631;SDS011;49583;45.590;-122.498;2023-11-19T13:56:45;8.40;;;2.40;;